Monson, Massachusetts
Current Conditions -  °F | °C
As of 8:58 AM on Tuesday 21 Oct 2014 (Local Time) from KCEF Reporting Station
Broken Clouds Broken Clouds  
Wind Chill: 46°   Ceiling: 11000
Heat Index: 49°   Visibility: 10mi
Dew Point: 44°   Wind: 6mph
Humidity: 85%   Direction: 300°WNW
Pressure: 29.96"   Gusts: NA
Location:  42.1°N, 72.32°W
Report Text: KCEF 211258Z 30005KT 10SM FEW020 SCT048 BKN110 09/07 A2996 RMK AO2A SLP152 T00920068
Loading
Personal Weather Stations






























Interactive Weather Map
Tropical Storm Tracking
New forecast layout! Learn more

10-Day Weather Forecast

Advertisements
Track Severe Weather on mobile